Time;durP1;ratioP1;P1;durP2;ratioP2;P2;SDS_P1;SDS_P2;PMS_P1;PMS_P2;Temp;Humidity;BMP_temperature;BMP_pressure;BME280_temperature;BME280_humidity;BME280_pressure;Samples;Min_cycle;Max_cycle;Signal;HPM_P1;HPM_P2
2023/01/23 00:01:52;;;;;;;18.82;8.28;;;;;;;0.21;97.98;102298.03;1673721;86;21199;-60
2023/01/23 00:04:21;;;;;;;20.70;7.87;;;;;;;0.22;97.86;102300.64;1673693;86;21179;-59
2023/01/23 00:06:50;;;;;;;12.75;5.85;;;;;;;0.18;97.76;102300.42;1673845;85;21152;-61
2023/01/23 00:09:20;;;;;;;19.02;7.22;;;;;;;0.17;97.73;102295.98;1673682;86;21152;-60
2023/01/23 00:11:51;;;;;;;18.57;7.47;;;;;;;0.17;97.63;102300.03;1673674;86;21183;-60
2023/01/23 00:14:21;;;;;;;14.50;6.72;;;;;;;0.18;97.61;102292.33;1673959;84;21116;-60
2023/01/23 00:16:50;;;;;;;15.38;7.20;;;;;;;0.17;97.40;102293.29;1683664;85;21683;-58
2023/01/23 00:19:20;;;;;;;16.32;6.40;;;;;;;0.18;97.46;102293.68;1683951;85;21582;-58
2023/01/23 00:21:49;;;;;;;17.02;6.33;;;;;;;0.19;97.30;102296.77;1683701;85;21190;-59
2023/01/23 00:24:17;;;;;;;14.07;5.90;;;;;;;0.18;97.28;102296.38;1683903;85;21202;-59
2023/01/23 00:26:46;;;;;;;14.80;6.00;;;;;;;0.24;97.29;102296.52;1683954;85;21155;-58
2023/01/23 00:29:15;;;;;;;16.60;6.37;;;;;;;0.23;97.18;102294.30;1683998;85;21234;-58
2023/01/23 00:31:45;;;;;;;13.40;6.35;;;;;;;0.24;97.13;102298.73;1683912;85;21183;-58
2023/01/23 00:34:17;;;;;;;13.58;5.50;;;;;;;0.25;97.11;102303.17;1683707;85;21654;-58
2023/01/23 00:36:49;;;;;;;13.15;5.50;;;;;;;0.29;96.98;102299.83;1683687;84;21192;-61
2023/01/23 00:39:20;;;;;;;11.15;4.85;;;;;;;0.26;96.80;102294.13;1683800;84;21155;-59
2023/01/23 00:41:48;;;;;;;14.43;5.35;;;;;;;0.26;96.83;102302.22;1683652;84;21159;-59
2023/01/23 00:44:18;;;;;;;12.47;5.35;;;;;;;0.26;96.84;102298.17;1683796;85;21171;-59
2023/01/23 00:46:51;;;;;;;12.10;4.90;;;;;;;0.30;96.91;102300.22;1683583;85;21199;-60
2023/01/23 00:49:20;;;;;;;9.73;4.72;;;;;;;0.36;96.91;102293.14;1683626;85;21171;-60
2023/01/23 00:51:53;;;;;;;9.98;4.83;;;;;;;0.38;96.74;102305.19;1683714;85;21639;-58
2023/01/23 00:54:24;;;;;;;10.93;4.70;;;;;;;0.38;96.50;102303.84;1683882;85;21610;-59
2023/01/23 00:56:53;;;;;;;10.85;4.55;;;;;;;0.35;96.35;102298.61;1683716;85;21612;-59
2023/01/23 00:59:23;;;;;;;9.55;4.87;;;;;;;0.34;96.20;102303.61;1683716;85;21637;-58
2023/01/23 01:01:53;;;;;;;10.15;4.70;;;;;;;0.34;96.29;102303.14;1683832;85;21182;-59
2023/01/23 01:04:25;;;;;;;7.83;4.30;;;;;;;0.41;96.23;102300.97;1683646;85;21147;-60
2023/01/23 01:06:55;;;;;;;9.88;4.47;;;;;;;0.43;95.99;102293.19;1683631;85;21187;-59
2023/01/23 01:09:25;;;;;;;11.73;4.60;;;;;;;0.44;95.81;102289.53;1683697;85;21195;-59
2023/01/23 01:11:55;;;;;;;8.40;4.80;;;;;;;0.46;95.78;102290.31;1683665;85;21595;-59
2023/01/23 01:14:23;;;;;;;10.03;5.08;;;;;;;0.47;95.64;102288.48;1683647;85;21664;-60
2023/01/23 01:16:54;;;;;;;9.03;5.05;;;;;;;0.47;95.45;102288.48;1683955;84;21138;-59
2023/01/23 01:19:23;;;;;;;8.88;4.85;;;;;;;0.47;95.39;102290.70;1683853;85;21587;-60
2023/01/23 01:21:53;;;;;;;13.78;5.28;;;;;;;0.48;95.27;102284.36;1683873;84;21598;-58
2023/01/23 01:24:22;;;;;;;8.63;5.15;;;;;;;0.51;95.22;102288.70;1683651;85;21194;-56
2023/01/23 01:26:51;;;;;;;9.83;5.20;;;;;;;0.51;94.99;102285.53;1683723;85;21641;-57
2023/01/23 01:29:20;;;;;;;8.05;4.28;;;;;;;0.50;94.69;102286.97;1683865;84;21313;-57
2023/01/23 01:31:50;;;;;;;8.55;4.85;;;;;;;0.50;94.65;102292.36;1683673;85;21590;-56
2023/01/23 01:34:20;;;;;;;9.10;4.85;;;;;;;0.48;94.53;102287.05;1683676;85;21203;-56
2023/01/23 01:36:52;;;;;;;9.95;4.95;;;;;;;0.47;94.50;102279.05;1683605;85;21187;-56
2023/01/23 01:39:21;;;;;;;7.75;4.72;;;;;;;0.45;94.27;102291.75;1683649;85;21139;-56
2023/01/23 01:41:50;;;;;;;10.30;5.30;;;;;;;0.41;94.16;102274.88;1683815;85;21630;-56
2023/01/23 01:44:22;;;;;;;9.88;5.37;;;;;;;0.39;94.27;102278.14;1683823;85;21143;-56
2023/01/23 01:46:50;;;;;;;9.90;5.15;;;;;;;0.42;94.32;102279.31;1683598;85;21238;-57
2023/01/23 01:49:29;;;;;;;8.85;4.72;;;;;;;0.45;94.34;102285.01;1683564;84;21235;-56
2023/01/23 01:52:03;;;;;;;8.73;4.70;;;;;;;0.46;94.15;102290.31;1683433;85;21154;-57
2023/01/23 01:54:46;;;;;;;9.53;5.42;;;;;;;0.45;94.13;102283.66;1683810;85;21131;-57
2023/01/23 01:57:28;;;;;;;9.70;5.08;;;;;;;0.46;94.00;102286.75;1683998;85;21182;-58
2023/01/23 02:00:16;;;;;;;7.03;3.95;;;;;;;0.44;94.04;102280.09;1683755;85;21166;-58
2023/01/23 02:03:02;;;;;;;9.30;4.87;;;;;;;0.48;93.97;102284.36;1683968;85;21285;-57
2023/01/23 02:05:43;;;;;;;11.95;5.10;;;;;;;0.43;93.86;102282.39;1683639;85;21838;-57
2023/01/23 02:08:41;;;;;;;10.80;5.05;;;;;;;0.43;94.03;102278.35;1683695;85;21141;-56
2023/01/23 02:11:10;;;;;;;9.40;4.95;;;;;;;0.47;94.09;102280.40;1683888;85;21191;-57
2023/01/23 02:13:41;;;;;;;9.73;4.53;;;;;;;0.45;94.02;102276.92;1683589;85;21187;-57
2023/01/23 02:16:28;;;;;;;8.45;4.50;;;;;;;0.43;93.88;102273.44;1683838;84;21179;-57
2023/01/23 02:19:00;;;;;;;10.88;4.60;;;;;;;0.42;93.93;102283.83;1683821;84;21707;-58
2023/01/23 02:21:29;;;;;;;8.28;3.67;;;;;;;0.41;93.83;102274.88;1684205;85;21173;-57
2023/01/23 02:24:14;;;;;;;8.03;4.37;;;;;;;0.42;93.84;102277.96;1683985;85;21178;-57
2023/01/23 02:26:44;;;;;;;9.38;4.28;;;;;;;0.43;93.95;102270.74;1681029;85;21142;-57
2023/01/23 02:29:14;;;;;;;8.58;4.22;;;;;;;0.47;94.01;102269.61;1683864;85;21166;-56
2023/01/23 02:31:50;;;;;;;7.20;3.85;;;;;;;0.49;93.87;102275.79;1683752;84;21178;-57
2023/01/23 02:34:21;;;;;;;8.35;4.00;;;;;;;0.48;93.69;102280.79;1683732;85;21186;-57
2023/01/23 02:36:52;;;;;;;11.83;4.72;;;;;;;0.42;93.62;102273.05;1683866;85;21150;-56
2023/01/23 02:39:21;;;;;;;9.88;4.25;;;;;;;0.40;93.75;102271.78;1683901;85;21159;-57
2023/01/23 02:41:52;;;;;;;8.65;3.95;;;;;;;0.40;93.83;102273.61;1683834;85;21179;-57
2023/01/23 02:44:30;;;;;;;8.25;4.00;;;;;;;0.39;93.75;102273.22;1683806;85;21189;-56
2023/01/23 02:47:11;;;;;;;7.72;4.00;;;;;;;0.41;93.80;102269.96;1683682;85;21190;-56
2023/01/23 02:49:41;;;;;;;7.80;4.20;;;;;;;0.45;93.78;102280.96;1683805;84;21234;-56
2023/01/23 02:52:11;;;;;;;9.45;4.10;;;;;;;0.45;93.15;102279.61;1683872;85;21154;-57
2023/01/23 02:54:40;;;;;;;5.75;3.45;;;;;;;0.42;92.97;102282.48;1683710;85;21119;-57
2023/01/23 02:57:11;;;;;;;8.13;3.45;;;;;;;0.42;92.60;102276.61;1683732;85;21135;-56
2023/01/23 03:02:29;;;;;;;5.40;2.80;;;;;;;0.46;92.31;102271.91;1662725;85;21134;-57
2023/01/23 03:04:59;;;;;;;6.10;3.12;;;;;;;0.47;91.90;102275.88;1683645;85;21203;-57
2023/01/23 03:07:29;;;;;;;5.50;3.20;;;;;;;0.47;91.74;102275.00;1683922;85;21147;-57
2023/01/23 03:09:59;;;;;;;5.17;2.80;;;;;;;0.49;91.52;102271.74;1683879;85;21666;-58
2023/01/23 03:12:29;;;;;;;5.70;3.05;;;;;;;0.52;91.33;102277.83;1683875;85;21214;-56
2023/01/23 03:14:59;;;;;;;7.20;3.47;;;;;;;0.55;91.20;102275.44;1683677;85;21214;-57
2023/01/23 03:17:29;;;;;;;5.78;3.02;;;;;;;0.57;91.07;102277.57;1683697;84;21178;-57
2023/01/23 03:20:00;;;;;;;7.62;3.87;;;;;;;0.60;90.78;102277.39;1683934;85;21706;-57
2023/01/23 03:22:29;;;;;;;7.22;4.28;;;;;;;0.61;90.67;102279.14;1683919;85;21158;-57
2023/01/23 03:24:58;;;;;;;7.30;4.10;;;;;;;0.63;90.67;102277.22;1683826;84;21190;-56
2023/01/23 03:27:27;;;;;;;8.18;4.67;;;;;;;0.66;90.27;102283.82;1683937;85;21210;-57
2023/01/23 03:30:30;;;;;;;8.20;4.85;;;;;;;0.65;90.26;102278.03;1664249;85;21182;-57
2023/01/23 03:32:33;;;;;;;;;;;;;;;0.68;90.27;102275.16;1677959;84;21131;-57
2023/01/23 03:35:02;;;;;;;12.25;4.62;;;;;;;0.66;89.97;102286.52;1683833;85;20508;-57
2023/01/23 03:37:31;;;;;;;12.25;5.00;;;;;;;0.56;89.99;102281.22;1683779;85;21595;-56
2023/01/23 03:42:48;;;;;;;9.05;4.62;;;;;;;0.49;90.21;102291.97;1683899;85;21571;-58
2023/01/23 03:45:21;;;;;;;9.13;4.75;;;;;;;0.47;90.40;102286.66;1683130;85;21605;-58
2023/01/23 03:47:50;;;;;;;9.03;4.58;;;;;;;0.44;90.51;102292.70;1683718;85;21652;-57
2023/01/23 03:50:19;;;;;;;10.40;5.15;;;;;;;0.43;90.67;102285.58;1683756;85;21621;-57
2023/01/23 03:52:48;;;;;;;10.78;5.28;;;;;;;0.42;90.88;102291.92;1683659;85;21222;-57
2023/01/23 03:55:17;;;;;;;9.73;4.53;;;;;;;0.42;91.03;102302.71;1683908;85;21206;-56
2023/01/23 03:57:47;;;;;;;12.47;5.33;;;;;;;0.41;91.21;102307.23;1683667;85;21621;-56
2023/01/23 04:00:19;;;;;;;13.25;5.90;;;;;;;0.41;91.31;102308.58;1683720;85;21155;-58
2023/01/23 04:02:53;;;;;;;13.88;5.67;;;;;;;0.41;91.52;102309.93;1683884;85;21159;-58
2023/01/23 04:05:22;;;;;;;12.90;6.10;;;;;;;0.43;91.69;102315.23;1683674;84;21166;-57
2023/01/23 04:07:52;;;;;;;12.37;5.30;;;;;;;0.44;91.89;102313.80;1683700;85;21146;-57
2023/01/23 04:10:21;;;;;;;12.98;5.20;;;;;;;0.47;92.11;102304.67;1683694;85;22192;-57
2023/01/23 04:12:52;;;;;;;14.78;6.12;;;;;;;0.51;92.20;102307.59;1683773;84;21163;-58
2023/01/23 04:15:21;;;;;;;13.93;6.00;;;;;;;0.51;92.24;102308.94;1683797;85;21206;-57
2023/01/23 04:17:51;;;;;;;10.80;5.67;;;;;;;0.50;92.42;102309.89;1674598;84;21187;-58
2023/01/23 04:20:21;;;;;;;14.60;6.20;;;;;;;0.51;92.50;102304.41;1673907;86;21195;-58
2023/01/23 04:22:51;;;;;;;13.70;5.85;;;;;;;0.50;92.63;102317.50;1673814;86;21159;-58
2023/01/23 04:25:20;;;;;;;12.10;6.25;;;;;;;0.48;92.83;102305.06;1673692;86;21223;-56
2023/01/23 04:27:49;;;;;;;14.13;7.08;;;;;;;0.46;92.99;102317.77;1673930;86;21217;-58
2023/01/23 04:30:19;;;;;;;14.58;6.92;;;;;;;0.45;93.17;102311.50;1673587;86;21151;-58
2023/01/23 04:32:49;;;;;;;17.15;7.70;;;;;;;0.45;93.29;102312.84;1673617;86;21159;-56
2023/01/23 04:35:20;;;;;;;16.70;7.42;;;;;;;0.45;93.33;102314.67;1673685;86;21151;-57
2023/01/23 04:37:49;;;;;;;17.12;7.47;;;;;;;0.45;93.45;102318.23;1673613;86;21144;-58
2023/01/23 04:40:18;;;;;;;16.95;8.58;;;;;;;0.43;93.41;102318.80;1673485;86;21199;-58
2023/01/23 04:42:52;;;;;;;18.35;7.70;;;;;;;0.44;93.54;102326.41;1673550;86;21866;-58
2023/01/23 04:45:33;;;;;;;17.77;8.93;;;;;;;0.41;93.66;102331.50;1673846;85;21463;-57
2023/01/23 04:48:23;;;;;;;19.35;9.50;;;;;;;0.43;93.80;102332.29;1671487;85;21224;-57
2023/01/23 04:50:53;;;;;;;20.15;9.05;;;;;;;0.44;93.89;102338.08;1673849;86;21132;-58
2023/01/23 04:53:22;;;;;;;18.73;8.28;;;;;;;0.45;93.93;102336.25;1673583;86;21611;-59
2023/01/23 04:55:53;;;;;;;20.30;9.65;;;;;;;0.45;93.91;102337.59;1673200;85;21147;-58
2023/01/23 04:58:22;;;;;;;19.82;8.63;;;;;;;0.42;93.97;102336.42;1673839;86;21151;-60
2023/01/23 05:00:52;;;;;;;20.00;9.08;;;;;;;0.41;94.09;102339.59;1673581;84;21195;-59
2023/01/23 05:03:25;;;;;;;18.92;7.95;;;;;;;0.39;94.06;102336.59;1673331;85;21144;-58
2023/01/23 05:05:54;;;;;;;18.73;8.68;;;;;;;0.36;94.13;102338.98;1673752;84;21186;-59
2023/01/23 05:08:23;;;;;;;18.50;8.40;;;;;;;0.38;94.29;102334.84;1673672;86;21187;-58
2023/01/23 05:10:54;;;;;;;16.65;7.87;;;;;;;0.44;94.42;102338.08;1672728;85;21578;-59
2023/01/23 05:13:23;;;;;;;19.77;9.10;;;;;;;0.44;94.39;102339.90;1673743;86;21202;-57
2023/01/23 05:15:54;;;;;;;26.50;10.93;;;;;;;0.43;94.42;102339.03;1673632;86;21210;-60
2023/01/23 05:18:23;;;;;;;19.17;8.73;;;;;;;0.43;94.47;102341.73;1683365;84;21174;-60
2023/01/23 05:20:53;;;;;;;15.50;6.83;;;;;;;0.43;94.54;102350.30;1683830;85;21547;-59
2023/01/23 05:23:23;;;;;;;15.53;6.70;;;;;;;0.44;94.66;102351.56;1683917;85;21624;-59
2023/01/23 05:25:52;;;;;;;13.65;5.80;;;;;;;0.44;94.69;102351.56;1662634;85;21190;-60
2023/01/23 05:28:22;;;;;;;14.10;5.95;;;;;;;0.44;94.72;102358.30;1683763;85;21195;-60
2023/01/23 05:30:52;;;;;;;14.45;6.05;;;;;;;0.42;94.76;102353.95;1662239;85;21175;-60
2023/01/23 05:33:24;;;;;;;12.50;5.45;;;;;;;0.39;94.69;102358.16;1683184;84;21151;-60
2023/01/23 05:35:53;;;;;;;14.20;6.28;;;;;;;0.39;94.75;102360.38;1683709;84;21138;-59
2023/01/23 05:38:23;;;;;;;17.15;5.58;;;;;;;0.36;94.71;102362.37;1662885;85;21559;-59
2023/01/23 05:40:54;;;;;;;15.40;6.40;;;;;;;0.35;94.88;102360.62;1683802;85;21170;-59
2023/01/23 05:43:25;;;;;;;16.45;6.10;;;;;;;0.37;95.00;102363.64;1677085;84;21151;-60
2023/01/23 05:45:54;;;;;;;14.95;6.05;;;;;;;0.40;95.19;102365.30;1683718;85;21582;-61
2023/01/23 05:48:25;;;;;;;13.95;6.22;;;;;;;0.46;95.30;102365.83;1683239;84;21183;-60
2023/01/23 05:50:54;;;;;;;13.40;5.80;;;;;;;0.48;95.19;102372.48;1683629;85;21174;-59
2023/01/23 05:53:23;;;;;;;11.90;4.95;;;;;;;0.48;95.28;102366.61;1683804;85;21203;-58
2023/01/23 05:55:53;;;;;;;12.10;5.40;;;;;;;0.53;95.33;102371.75;1683887;84;21159;-60
2023/01/23 05:58:22;;;;;;;12.45;5.60;;;;;;;0.54;95.27;102372.14;1683781;85;21151;-58
2023/01/23 06:00:54;;;;;;;13.00;5.72;;;;;;;0.53;95.30;102375.80;1681878;84;21166;-59
2023/01/23 06:03:29;;;;;;;16.17;5.95;;;;;;;0.55;95.29;102369.84;1652932;85;21147;-59
2023/01/23 06:06:10;;;;;;;13.20;5.85;;;;;;;0.56;95.37;102376.50;1682012;84;21175;-60
2023/01/23 06:08:38;;;;;;;13.98;5.85;;;;;;;0.59;95.47;102382.20;1683821;84;21635;-60
2023/01/23 06:11:07;;;;;;;12.45;5.65;;;;;;;0.58;95.30;102384.03;1683698;85;21159;-59
2023/01/23 06:13:36;;;;;;;13.88;6.00;;;;;;;0.54;95.29;102385.16;1683798;85;21219;-59
2023/01/23 06:16:06;;;;;;;12.95;6.40;;;;;;;0.53;95.36;102383.89;1684028;85;21130;-59
2023/01/23 06:18:39;;;;;;;10.90;5.42;;;;;;;0.52;95.49;102384.84;1683512;84;21614;-59
2023/01/23 06:21:08;;;;;;;11.65;5.37;;;;;;;0.55;95.69;102380.63;1683700;84;21143;-58
2023/01/23 06:23:39;;;;;;;11.95;5.10;;;;;;;0.59;95.69;102379.03;1663061;85;21232;-59
2023/01/23 06:26:10;;;;;;;11.57;5.15;;;;;;;0.61;95.62;102381.16;1683676;85;21206;-59
2023/01/23 06:28:40;;;;;;;10.88;5.10;;;;;;;0.63;95.52;102381.95;1683929;85;21258;-59
2023/01/23 06:31:09;;;;;;;11.38;5.08;;;;;;;0.60;95.31;102386.64;1683675;85;21634;-59
2023/01/23 06:33:40;;;;;;;10.72;5.45;;;;;;;0.57;95.30;102389.03;1683651;84;21151;-60
2023/01/23 06:36:11;;;;;;;11.97;5.60;;;;;;;0.58;95.40;102388.55;1683730;85;21184;-59
2023/01/23 06:38:40;;;;;;;8.78;5.10;;;;;;;0.58;95.34;102393.47;1683586;85;21175;-57
2023/01/23 06:41:10;;;;;;;15.75;7.28;;;;;;;0.59;95.33;102395.69;1684027;85;21253;-60
2023/01/23 06:43:41;;;;;;;11.22;5.17;;;;;;;0.59;95.34;102394.34;1683859;85;21605;-60
2023/01/23 06:46:12;;;;;;;10.25;5.08;;;;;;;0.60;95.32;102397.43;1683239;85;21179;-60
2023/01/23 06:48:42;;;;;;;11.73;5.60;;;;;;;0.59;95.46;102394.34;1683692;85;21151;-59
2023/01/23 06:51:12;;;;;;;11.28;5.35;;;;;;;0.60;95.39;102398.78;1683730;85;21191;-60
2023/01/23 06:53:43;;;;;;;10.08;4.20;;;;;;;0.60;95.45;102404.17;1683757;85;21182;-59
2023/01/23 06:56:14;;;;;;;9.33;4.40;;;;;;;0.63;95.50;102408.05;1631540;86;21150;-61
2023/01/23 06:58:47;;;;;;;9.13;4.33;;;;;;;0.64;95.49;102411.14;1630942;88;21121;-63
2023/01/23 07:01:27;;;;;;;11.15;5.12;;;;;;;0.62;95.32;102412.58;1630432;86;21209;-59
2023/01/23 07:04:04;;;;;;;10.10;5.10;;;;;;;0.60;95.31;102414.97;1598551;88;21589;-60
2023/01/23 07:06:33;;;;;;;10.93;5.87;;;;;;;0.61;95.34;102416.23;1631028;88;21173;-62
2023/01/23 07:09:02;;;;;;;10.43;5.25;;;;;;;0.66;95.38;102417.84;1631125;88;21178;-60
2023/01/23 07:11:32;;;;;;;11.10;4.55;;;;;;;0.69;95.28;102423.06;1630999;88;21245;-60
2023/01/23 07:14:02;;;;;;;8.78;4.37;;;;;;;0.69;95.34;102421.23;1627433;85;21178;-60
2023/01/23 07:16:34;;;;;;;10.18;4.65;;;;;;;0.69;95.17;102422.59;1683848;85;21199;-60
2023/01/23 07:19:04;;;;;;;9.18;4.12;;;;;;;0.67;95.07;102420.93;1683640;84;21631;-60
2023/01/23 07:21:35;;;;;;;9.55;4.25;;;;;;;0.71;95.26;102430.12;1684246;85;21559;-60
2023/01/23 07:24:05;;;;;;;8.95;4.30;;;;;;;0.76;95.19;102423.98;1683782;85;21592;-60
2023/01/23 07:26:35;;;;;;;9.78;4.75;;;;;;;0.77;95.00;102423.52;1683848;85;21194;-59
2023/01/23 07:29:07;;;;;;;9.13;4.25;;;;;;;0.76;94.97;102428.04;1683654;84;21127;-60
2023/01/23 07:31:36;;;;;;;9.23;4.33;;;;;;;0.77;94.85;102428.43;1683725;85;21211;-58
2023/01/23 07:34:06;;;;;;;9.45;4.40;;;;;;;0.75;94.83;102427.64;1683722;85;21143;-60
2023/01/23 07:36:36;;;;;;;8.60;4.65;;;;;;;0.80;94.92;102432.30;1683787;85;21151;-59
2023/01/23 07:39:06;;;;;;;11.43;4.87;;;;;;;0.86;94.87;102427.05;1683676;85;21155;-60
2023/01/23 07:41:35;;;;;;;9.58;5.08;;;;;;;0.88;94.68;102435.45;1683714;85;21159;-62
2023/01/23 07:44:06;;;;;;;8.75;4.80;;;;;;;0.87;94.45;102430.14;1683620;85;21171;-60
2023/01/23 07:46:35;;;;;;;10.18;4.17;;;;;;;0.85;94.35;102438.31;1683855;85;21162;-59
2023/01/23 07:49:07;;;;;;;10.70;4.97;;;;;;;0.81;94.19;102432.70;1663379;85;21190;-60
2023/01/23 07:51:37;;;;;;;8.90;4.67;;;;;;;0.78;94.12;102434.22;1683742;85;21648;-61
2023/01/23 07:54:06;;;;;;;11.93;4.92;;;;;;;0.79;94.12;102436.44;1683675;85;21163;-60
2023/01/23 07:56:35;;;;;;;9.15;4.97;;;;;;;0.79;94.19;102434.61;1683564;84;21151;-61
2023/01/23 07:59:06;;;;;;;7.58;4.30;;;;;;;0.82;94.20;102441.67;1683696;85;21190;-59
2023/01/23 08:01:35;;;;;;;10.20;4.75;;;;;;;0.81;94.07;102439.92;1683751;85;21594;-60
2023/01/23 08:04:05;;;;;;;9.43;3.90;;;;;;;0.80;94.04;102441.75;1683755;85;21190;-59
2023/01/23 08:06:35;;;;;;;11.25;4.62;;;;;;;0.82;94.14;102449.77;1683732;85;21194;-60
2023/01/23 08:09:04;;;;;;;9.60;3.98;;;;;;;0.82;94.01;102451.98;1683665;85;21247;-61
2023/01/23 08:11:34;;;;;;;7.83;4.20;;;;;;;0.81;94.10;102456.98;1683748;84;21127;-60
2023/01/23 08:14:04;;;;;;;9.65;4.37;;;;;;;0.81;94.05;102456.12;1683740;84;21151;-62
2023/01/23 08:16:35;;;;;;;8.23;4.35;;;;;;;0.77;93.91;102453.19;1683926;85;21143;-61
2023/01/23 08:19:08;;;;;;;7.80;3.72;;;;;;;0.72;93.84;102453.44;1683601;84;21159;-60
2023/01/23 08:21:38;;;;;;;12.13;4.87;;;;;;;0.72;93.85;102455.27;1683743;85;21607;-60
2023/01/23 08:24:09;;;;;;;11.38;5.10;;;;;;;0.71;93.82;102464.32;1683698;84;21142;-60
2023/01/23 08:26:37;;;;;;;8.55;4.30;;;;;;;0.73;93.85;102459.23;1683865;84;21574;-61
2023/01/23 08:29:07;;;;;;;8.80;4.20;;;;;;;0.76;93.89;102464.46;1683933;85;21159;-60
2023/01/23 08:31:36;;;;;;;6.35;3.12;;;;;;;0.79;93.73;102464.30;1683732;85;21154;-60
2023/01/23 08:34:07;;;;;;;9.43;3.58;;;;;;;0.78;93.53;102463.90;1683686;85;21153;-61
2023/01/23 08:36:36;;;;;;;6.67;3.67;;;;;;;0.78;93.24;102462.55;1683752;85;21166;-61
2023/01/23 08:39:06;;;;;;;8.63;4.90;;;;;;;0.79;93.06;102464.30;1683895;85;21562;-61
2023/01/23 08:41:36;;;;;;;8.28;4.00;;;;;;;0.82;93.02;102467.30;1683966;85;21199;-60
2023/01/23 08:44:05;;;;;;;7.50;3.45;;;;;;;0.83;92.77;102465.00;1683736;85;21158;-60
2023/01/23 08:46:35;;;;;;;9.23;3.98;;;;;;;0.82;92.67;102465.95;1683702;85;21155;-60
2023/01/23 08:49:05;;;;;;;10.13;4.08;;;;;;;0.82;92.52;102470.87;1683678;85;21175;-61
2023/01/23 08:51:34;;;;;;;7.37;3.60;;;;;;;0.77;92.54;102456.77;1683649;85;21182;-61
2023/01/23 08:54:05;;;;;;;7.20;3.52;;;;;;;0.80;92.68;102467.86;1683942;84;21590;-59
2023/01/23 08:56:35;;;;;;;8.05;3.92;;;;;;;0.82;92.57;102464.13;1684045;85;21198;-59
2023/01/23 08:59:04;;;;;;;7.97;3.65;;;;;;;0.85;92.58;102463.95;1683693;85;21582;-61
2023/01/23 09:01:35;;;;;;;6.87;3.77;;;;;;;0.87;92.31;102467.92;1683898;85;21166;-59
2023/01/23 09:04:06;;;;;;;7.55;3.65;;;;;;;0.87;92.02;102463.87;1683836;85;21153;-60
2023/01/23 09:06:35;;;;;;;5.95;3.37;;;;;;;0.83;91.86;102468.57;1683861;84;21238;-61
2023/01/23 09:09:04;;;;;;;7.05;3.75;;;;;;;0.87;91.84;102470.62;1683924;85;21226;-60
2023/01/23 09:11:34;;;;;;;6.92;3.62;;;;;;;0.84;91.61;102464.05;1683837;85;21178;-60
2023/01/23 09:14:04;;;;;;;5.20;3.02;;;;;;;0.82;91.69;102466.83;1683802;85;21563;-62
2023/01/23 09:16:34;;;;;;;6.72;3.65;;;;;;;0.83;91.70;102463.64;1683665;85;21134;-60
2023/01/23 09:19:03;;;;;;;7.35;3.85;;;;;;;0.85;91.55;102463.09;1676588;85;21167;-60
2023/01/23 09:21:33;;;;;;;8.18;4.22;;;;;;;0.82;91.41;102470.87;1673693;85;21191;-59
2023/01/23 09:24:04;;;;;;;8.20;3.72;;;;;;;0.79;91.33;102468.82;1693607;83;21577;-61
2023/01/23 09:26:33;;;;;;;9.08;4.00;;;;;;;0.82;91.57;102465.95;1679072;83;21201;-59
2023/01/23 09:29:03;;;;;;;7.95;3.58;;;;;;;0.84;91.52;102464.91;1673615;86;21144;-61
2023/01/23 09:31:33;;;;;;;7.58;3.60;;;;;;;0.84;91.53;102465.39;1673736;84;21211;-59
2023/01/23 09:34:03;;;;;;;10.65;4.00;;;;;;;0.83;91.59;102459.59;1673641;85;21187;-60
2023/01/23 09:36:32;;;;;;;8.93;4.20;;;;;;;0.87;91.59;102461.17;1673623;86;21633;-61
2023/01/23 09:39:03;;;;;;;8.23;4.40;;;;;;;0.88;91.59;102461.09;1672344;85;21302;-62
2023/01/23 09:41:33;;;;;;;8.05;4.37;;;;;;;0.88;91.59;102459.73;1673548;86;21198;-61
2023/01/23 09:44:08;;;;;;;8.98;4.50;;;;;;;0.86;91.45;102460.78;1673765;84;21179;-58
2023/01/23 09:47:01;;;;;;;10.20;4.67;;;;;;;0.82;91.53;102454.68;1673706;86;21575;-62
2023/01/23 09:49:41;;;;;;;9.90;4.80;;;;;;;0.90;92.27;102463.70;1673588;85;21633;-58
2023/01/23 09:52:36;;;;;;;8.10;3.62;;;;;;;0.94;92.27;102458.05;1673628;86;21155;-61
2023/01/23 09:55:29;;;;;;;8.38;4.05;;;;;;;0.97;92.38;102457.48;1640628;86;21198;-61
2023/01/23 09:58:00;;;;;;;10.50;3.80;;;;;;;0.92;92.10;102454.56;1640360;86;21140;-61
2023/01/23 10:00:35;;;;;;;7.83;4.15;;;;;;;0.88;92.02;102451.64;1673073;86;21242;-61
2023/01/23 10:03:12;;;;;;;7.53;3.87;;;;;;;0.86;92.08;102446.81;1673431;84;21199;-59
2023/01/23 10:06:07;;;;;;;11.03;4.30;;;;;;;0.86;92.02;102449.98;1673572;85;21163;-62
2023/01/23 10:08:47;;;;;;;8.93;4.83;;;;;;;0.82;91.93;102447.06;1673603;85;21674;-60
2023/01/23 10:11:41;;;;;;;7.75;3.80;;;;;;;0.79;92.07;102448.11;1673502;86;21582;-61
2023/01/23 10:14:39;;;;;;;8.73;3.92;;;;;;;0.81;92.09;102449.37;1673796;84;21198;-60
2023/01/23 10:17:36;;;;;;;7.55;3.98;;;;;;;0.80;92.15;102452.55;1673653;84;21895;-62
2023/01/23 10:20:35;;;;;;;7.95;3.60;;;;;;;0.80;92.10;102449.84;1670860;86;21167;-59
2023/01/23 10:23:29;;;;;;;10.18;4.25;;;;;;;0.80;92.22;102453.89;1673789;86;21163;-59
2023/01/23 10:26:01;;;;;;;10.20;5.08;;;;;;;0.82;92.31;102454.68;1673461;86;21179;-60
2023/01/23 10:28:40;;;;;;;11.60;4.90;;;;;;;0.83;92.41;102453.73;1652963;86;21156;-58
2023/01/23 10:31:39;;;;;;;9.65;4.37;;;;;;;0.84;92.51;102448.72;1664671;83;21138;-57
2023/01/23 10:34:23;;;;;;;10.10;4.65;;;;;;;0.87;92.73;102447.20;1663336;86;21217;-60
2023/01/23 10:37:15;;;;;;;9.10;4.72;;;;;;;0.89;92.63;102449.34;1667916;85;21138;-60
2023/01/23 10:40:06;;;;;;;15.65;7.17;;;;;;;0.87;92.48;102439.10;1637114;85;21561;-59
2023/01/23 10:42:44;;;;;;;20.80;8.85;;;;;;;0.87;92.45;102440.45;1667461;84;21234;-61
2023/01/23 10:45:23;;;;;;;19.13;8.40;;;;;;;0.88;92.40;102441.33;1667479;85;21526;-58
2023/01/23 10:47:59;;;;;;;10.30;4.92;;;;;;;0.89;92.27;102436.32;1667411;86;21169;-60
2023/01/23 10:50:38;;;;;;;9.23;4.65;;;;;;;0.87;92.28;102429.66;1667862;84;21372;-59
2023/01/23 10:53:12;;;;;;;10.60;4.50;;;;;;;0.87;92.11;102429.66;1668242;85;21233;-60
2023/01/23 10:55:44;;;;;;;12.25;4.53;;;;;;;0.82;92.03;102426.34;1667951;84;21177;-59
2023/01/23 10:58:35;;;;;;;8.95;4.53;;;;;;;0.82;91.99;102428.17;1668634;86;21615;-59
2023/01/23 11:01:05;;;;;;;10.53;4.60;;;;;;;0.80;91.94;102426.04;1666941;84;21925;-60
2023/01/23 11:03:40;;;;;;;9.28;4.47;;;;;;;0.79;91.88;102422.47;1667829;84;21639;-60
2023/01/23 11:06:18;;;;;;;10.30;4.62;;;;;;;0.81;91.96;102419.69;1639173;86;21847;-59
2023/01/23 11:08:54;;;;;;;11.12;4.72;;;;;;;0.83;92.13;102424.52;1638250;86;21153;-59
2023/01/23 11:11:27;;;;;;;11.38;4.62;;;;;;;0.81;92.18;102415.16;1667718;85;21380;-60
2023/01/23 11:14:13;;;;;;;10.38;5.30;;;;;;;0.78;91.78;102418.03;1668086;85;21137;-59
2023/01/23 11:16:45;;;;;;;15.23;5.30;;;;;;;0.74;91.78;102419.16;1668345;84;21585;-58
2023/01/23 11:19:20;;;;;;;11.83;5.10;;;;;;;0.76;91.86;102417.72;1665784;85;21140;-59
2023/01/23 11:22:01;;;;;;;10.63;5.12;;;;;;;0.77;91.75;102420.33;1663623;85;21158;-60
2023/01/23 13:30:31;;;;;;;11.23;4.60;;;;;;;0.51;90.77;102427.13;1829978;77;24616;-66
2023/01/23 13:33:07;;;;;;;17.12;6.50;;;;;;;0.49;90.69;102429.52;1724057;83;21643;-65
2023/01/23 13:35:51;;;;;;;23.18;6.80;;;;;;;0.52;90.58;102428.00;1619222;87;21186;-66
2023/01/23 13:38:30;;;;;;;21.23;7.00;;;;;;;0.53;90.46;102425.70;1633402;88;21633;-66
2023/01/23 13:41:18;;;;;;;13.48;5.67;;;;;;;0.56;90.38;102429.58;1703467;84;21163;-66
2023/01/23 13:44:03;;;;;;;16.35;7.00;;;;;;;0.59;90.29;102429.41;1702841;84;21568;-66
2023/01/23 13:50:21;;;;;;;18.10;6.85;;;;;;;0.66;90.11;102435.38;1701431;84;21554;-66
2023/01/23 13:58:36;;;;;;;16.97;6.05;;;;;;;0.75;89.78;102432.17;1703707;84;21226;-66
2023/01/23 14:06:59;;;;;;;19.60;7.12;;;;;;;0.76;89.38;102434.78;1788421;80;21943;-67
2023/01/23 14:09:31;;;;;;;16.23;6.83;;;;;;;0.79;89.28;102438.66;1788393;79;21119;-66
2023/01/23 14:12:04;;;;;;;20.45;7.58;;;;;;;0.78;89.11;102442.31;1769257;80;21107;-67
2023/01/23 14:17:25;;;;;;;18.52;6.90;;;;;;;0.77;88.75;102435.66;1788673;80;21138;-68
2023/01/23 14:20:02;;;;;;;15.83;6.60;;;;;;;0.79;88.75;102441.84;1768909;80;21158;-68
2023/01/23 14:22:32;;;;;;;20.43;7.05;;;;;;;0.80;88.70;102441.75;1788454;80;21131;-67
2023/01/23 14:25:01;;;;;;;15.98;6.17;;;;;;;0.80;88.72;102438.18;1788449;80;21107;-69